createdAt,value
2023-02-08T00:00:58.070Z,-6.60
2023-02-08T00:03:25.397Z,-6.60
2023-02-08T00:05:52.550Z,-6.60
2023-02-08T00:08:19.671Z,-6.70
2023-02-08T00:10:46.803Z,-6.60
2023-02-08T00:13:13.806Z,-6.60
2023-02-08T00:15:45.574Z,-6.50
2023-02-08T00:18:13.579Z,-6.60
2023-02-08T00:20:42.589Z,-6.70
2023-02-08T00:23:10.260Z,-6.80
2023-02-08T00:25:37.798Z,-6.80
2023-02-08T00:28:08.412Z,-6.80
2023-02-08T00:30:36.544Z,-6.80
2023-02-08T00:33:04.121Z,-6.80
2023-02-08T00:35:31.286Z,-6.80
2023-02-08T00:37:58.591Z,-6.90
2023-02-08T00:40:27.568Z,-6.90
2023-02-08T00:42:54.792Z,-7.00
2023-02-08T00:45:21.945Z,-7.00
2023-02-08T00:47:49.323Z,-7.00
2023-02-08T00:50:16.647Z,-6.90
2023-02-08T00:52:43.763Z,-6.90
2023-02-08T00:55:10.929Z,-6.80
2023-02-08T00:57:38.079Z,-6.90
2023-02-08T01:00:07.124Z,-7.00
2023-02-08T01:02:34.227Z,-7.00
2023-02-08T01:05:01.272Z,-7.20
2023-02-08T01:07:28.414Z,-7.20
2023-02-08T01:09:55.442Z,-7.30
2023-02-08T01:12:22.832Z,-7.30
2023-02-08T01:14:49.853Z,-7.20
2023-02-08T01:17:17.077Z,-7.20
2023-02-08T01:19:44.270Z,-7.10
2023-02-08T01:22:11.507Z,-7.20
2023-02-08T01:24:38.612Z,-7.20
2023-02-08T01:27:05.862Z,-7.20
2023-02-08T01:29:32.914Z,-7.10
2023-02-08T01:32:00.108Z,-7.20
2023-02-08T01:34:27.141Z,-7.20
2023-02-08T01:36:54.433Z,-7.20
2023-02-08T01:39:21.585Z,-7.20
2023-02-08T01:41:48.813Z,-7.20
2023-02-08T01:44:17.534Z,-7.30
2023-02-08T01:46:51.321Z,-7.30
2023-02-08T01:49:23.649Z,-7.20
2023-02-08T01:52:05.709Z,-7.20
2023-02-08T01:54:38.256Z,-7.20
2023-02-08T01:57:05.602Z,-7.20
2023-02-08T02:00:04.692Z,-7.20
2023-02-08T02:02:32.205Z,-7.10
2023-02-08T02:04:59.865Z,-7.20
2023-02-08T02:07:30.198Z,-7.30
2023-02-08T02:10:04.330Z,-7.40
2023-02-08T02:12:33.095Z,-7.40
2023-02-08T02:15:01.948Z,-7.40
2023-02-08T02:17:29.245Z,-7.50
2023-02-08T02:20:18.930Z,-7.60
2023-02-08T02:23:10.669Z,-7.70
2023-02-08T02:25:59.945Z,-7.70
2023-02-08T02:28:36.955Z,-7.70
2023-02-08T02:31:29.150Z,-7.60
2023-02-08T02:34:09.721Z,-7.60
2023-02-08T02:36:56.157Z,-7.60
2023-02-08T02:39:52.416Z,-7.60
2023-02-08T02:43:03.098Z,-7.60
2023-02-08T02:45:40.877Z,-7.60
2023-02-08T02:48:13.722Z,-7.70
2023-02-08T02:50:45.641Z,-7.80
2023-02-08T02:53:26.580Z,-7.80
2023-02-08T02:55:59.769Z,-7.70
2023-02-08T02:58:29.349Z,-7.60
2023-02-08T03:00:58.916Z,-7.70
2023-02-08T03:03:30.730Z,-7.70
2023-02-08T03:06:03.030Z,-7.70
2023-02-08T03:08:59.117Z,-7.70
2023-02-08T03:11:30.571Z,-7.80
2023-02-08T03:14:04.901Z,-7.80
2023-02-08T03:17:00.867Z,-7.70
2023-02-08T03:19:37.395Z,-7.90
2023-02-08T03:22:33.595Z,-7.90
2023-02-08T03:25:26.094Z,-7.80
2023-02-08T03:28:22.616Z,-7.90
2023-02-08T03:30:58.813Z,-7.80
2023-02-08T03:33:52.609Z,-7.80
2023-02-08T03:36:45.267Z,-7.90
2023-02-08T03:39:17.019Z,-7.90
2023-02-08T03:41:48.187Z,-7.90
2023-02-08T03:44:35.480Z,-7.80
2023-02-08T03:47:13.518Z,-7.80
2023-02-08T03:49:43.659Z,-7.80
2023-02-08T03:52:11.600Z,-7.90
2023-02-08T03:54:51.249Z,-7.90
2023-02-08T03:57:43.746Z,-8.00
2023-02-08T04:00:15.006Z,-8.10
2023-02-08T04:03:01.327Z,-8.00
2023-02-08T04:05:29.500Z,-8.10
2023-02-08T04:07:56.651Z,-8.10
2023-02-08T04:10:23.769Z,-8.10
2023-02-08T04:12:50.758Z,-8.20
2023-02-08T04:15:18.259Z,-8.20
2023-02-08T04:17:45.512Z,-8.30
2023-02-08T04:20:12.568Z,-8.20
2023-02-08T04:22:40.082Z,-8.20
2023-02-08T04:25:07.545Z,-8.10
2023-02-08T04:27:34.781Z,-8.10
2023-02-08T04:30:01.978Z,-8.20
2023-02-08T04:32:29.191Z,-8.20
2023-02-08T04:34:56.375Z,-8.30
2023-02-08T04:37:23.498Z,-8.30
2023-02-08T04:39:50.590Z,-8.30
2023-02-08T04:42:17.763Z,-8.40
2023-02-08T04:44:44.928Z,-8.40
2023-02-08T04:47:12.053Z,-8.40
2023-02-08T04:49:39.206Z,-8.50
2023-02-08T04:52:06.749Z,-8.60
2023-02-08T04:54:33.977Z,-8.60
2023-02-08T04:57:01.088Z,-8.60
2023-02-08T04:59:28.432Z,-8.60
2023-02-08T05:01:55.670Z,-8.50
2023-02-08T05:04:22.955Z,-8.50
2023-02-08T05:06:50.180Z,-8.40
2023-02-08T05:09:17.326Z,-8.40
2023-02-08T05:11:44.518Z,-8.40
2023-02-08T05:14:11.798Z,-8.40
2023-02-08T05:16:38.916Z,-8.50
2023-02-08T05:19:06.036Z,-8.60
2023-02-08T05:21:33.218Z,-8.60
2023-02-08T05:24:00.328Z,-8.50
2023-02-08T05:26:27.483Z,-8.50
2023-02-08T05:28:54.583Z,-8.50
2023-02-08T05:31:24.208Z,-8.50
2023-02-08T05:33:53.099Z,-8.60
2023-02-08T05:36:21.441Z,-8.70
2023-02-08T05:38:48.536Z,-8.70
2023-02-08T05:41:16.456Z,-8.70
2023-02-08T05:43:43.610Z,-8.60
2023-02-08T05:46:10.819Z,-8.70
2023-02-08T05:48:38.344Z,-8.70
2023-02-08T05:51:05.530Z,-8.70
2023-02-08T05:53:32.655Z,-8.80
2023-02-08T05:55:59.630Z,-8.80
2023-02-08T05:58:27.050Z,-8.90
2023-02-08T06:00:57.270Z,-8.90
2023-02-08T06:03:24.472Z,-8.90
2023-02-08T06:05:51.677Z,-8.90
2023-02-08T06:08:18.859Z,-8.90
2023-02-08T06:10:50.195Z,-8.80
2023-02-08T06:13:17.448Z,-8.70
2023-02-08T06:15:45.232Z,-8.70
2023-02-08T06:18:12.344Z,-8.70
2023-02-08T06:20:39.681Z,-8.70
2023-02-08T06:23:06.945Z,-8.70
2023-02-08T06:25:35.529Z,-8.70
2023-02-08T06:28:03.501Z,-8.70
2023-02-08T06:30:31.468Z,-8.80
2023-02-08T06:33:00.460Z,-8.70
2023-02-08T06:54:19.665Z,-8.30
2023-02-08T06:56:46.630Z,-8.30
2023-02-08T06:59:14.145Z,-8.30
2023-02-08T07:01:41.263Z,-8.10
2023-02-08T07:04:08.280Z,-7.10
2023-02-08T07:06:35.719Z,-6.20
2023-02-08T07:09:04.404Z,-6.00
2023-02-08T07:11:34.065Z,-5.90
2023-02-08T07:14:01.578Z,-5.90
2023-02-08T07:16:28.606Z,-5.90
2023-02-08T07:18:55.642Z,-5.70
2023-02-08T07:27:01.015Z,-5.00
2023-02-08T07:29:30.083Z,-4.70
2023-02-08T07:31:58.618Z,-4.00
2023-02-08T07:34:26.485Z,-3.90
2023-02-08T07:36:53.427Z,-3.90
2023-02-08T07:39:20.822Z,-4.00
2023-02-08T07:41:48.410Z,-4.20
2023-02-08T07:44:15.486Z,-4.20
2023-02-08T07:46:42.551Z,-4.00
2023-02-08T07:49:10.321Z,-3.60
2023-02-08T07:51:37.255Z,-3.50
2023-02-08T07:54:04.636Z,-3.70
2023-02-08T07:56:31.726Z,-3.60
2023-02-08T07:58:58.767Z,-3.10
2023-02-08T08:01:25.962Z,-2.40
2023-02-08T08:03:53.395Z,-1.30
2023-02-08T08:06:22.245Z,-0.30
2023-02-08T08:08:49.505Z,-0.30
2023-02-08T08:11:17.871Z,-0.20
2023-02-08T08:13:44.877Z,-0.50
2023-02-08T08:16:12.485Z,-0.40
2023-02-08T08:18:39.813Z,0.10
2023-02-08T08:21:07.073Z,0.30
2023-02-08T08:23:34.069Z,0.80
2023-02-08T08:26:01.172Z,1.00
2023-02-08T08:28:28.289Z,0.40
2023-02-08T08:30:55.459Z,-0.40
2023-02-08T08:33:22.496Z,-0.50
2023-02-08T08:35:49.458Z,-0.70
2023-02-08T08:38:16.416Z,-1.00
2023-02-08T08:40:43.632Z,-1.30
2023-02-08T08:43:10.608Z,-1.40
2023-02-08T08:45:37.635Z,-1.50
2023-02-08T08:48:04.979Z,-1.50
2023-02-08T08:50:31.958Z,-1.50
2023-02-08T08:52:58.935Z,-1.40
2023-02-08T08:55:26.359Z,-1.50
2023-02-08T08:57:53.995Z,-1.30
2023-02-08T09:00:21.416Z,-1.20
2023-02-08T09:02:48.435Z,-1.20
2023-02-08T09:05:15.422Z,-1.10
2023-02-08T09:07:42.354Z,-1.20
2023-02-08T09:10:09.550Z,-1.00
2023-02-08T09:12:36.699Z,-1.00
2023-02-08T09:15:04.324Z,-0.90
2023-02-08T09:17:31.809Z,-1.10
2023-02-08T09:19:58.756Z,-1.10
2023-02-08T09:22:25.687Z,-1.20
2023-02-08T09:24:54.056Z,-1.10
2023-02-08T09:27:21.068Z,-1.00
2023-02-08T09:29:48.002Z,-0.70
2023-02-08T09:32:15.091Z,-0.40
2023-02-08T09:34:42.129Z,-0.30
2023-02-08T09:37:09.078Z,-0.20
2023-02-08T09:39:36.108Z,-0.10
2023-02-08T09:42:27.178Z,0.00
2023-02-08T09:45:12.723Z,0.00
2023-02-08T09:48:07.627Z,0.00
2023-02-08T09:50:43.547Z,0.00
2023-02-08T09:53:25.893Z,0.30
2023-02-08T09:56:03.344Z,0.40
2023-02-08T09:58:38.487Z,0.80
2023-02-08T10:01:21.387Z,1.00
2023-02-08T10:03:50.630Z,1.00
2023-02-08T10:06:20.268Z,1.00
2023-02-08T10:08:51.066Z,1.10
2023-02-08T10:11:18.056Z,1.00
2023-02-08T10:13:53.777Z,1.10
2023-02-08T10:16:43.968Z,1.20
2023-02-08T10:19:34.818Z,1.50
2023-02-08T10:22:12.941Z,1.50
2023-02-08T10:24:58.349Z,1.50
2023-02-08T10:28:00.948Z,1.70
2023-02-08T10:30:34.852Z,1.80
2023-02-08T10:33:07.340Z,1.70
2023-02-08T10:35:41.781Z,1.60
2023-02-08T10:38:18.053Z,1.40
2023-02-08T10:40:47.006Z,1.40
2023-02-08T10:43:20.098Z,1.50
2023-02-08T10:46:04.620Z,1.80
2023-02-08T10:48:50.197Z,2.00
2023-02-08T10:51:22.049Z,1.90
2023-02-08T10:53:49.443Z,2.10
2023-02-08T10:56:30.195Z,2.30
2023-02-08T10:59:00.129Z,2.30
2023-02-08T11:01:28.797Z,2.30
2023-02-08T11:04:14.904Z,2.20
2023-02-08T11:06:44.376Z,2.30
2023-02-08T11:09:23.767Z,2.60
2023-02-08T11:11:53.739Z,2.70
2023-02-08T11:14:47.122Z,2.80
2023-02-08T11:17:31.266Z,2.60
2023-02-08T11:19:59.934Z,2.70
2023-02-08T11:22:31.377Z,2.80
2023-02-08T11:25:06.667Z,2.60
2023-02-08T11:27:33.843Z,2.60
2023-02-08T11:30:16.433Z,2.60
2023-02-08T11:32:45.555Z,2.70
2023-02-08T11:35:24.334Z,2.70
2023-02-08T11:37:57.158Z,2.70
2023-02-08T11:40:37.509Z,2.80
2023-02-08T11:43:05.648Z,2.50
2023-02-08T11:45:35.375Z,2.30
2023-02-08T11:48:07.102Z,2.30
2023-02-08T11:50:38.607Z,2.40
2023-02-08T11:53:30.618Z,2.50
2023-02-08T11:56:19.412Z,2.40
2023-02-08T11:58:59.106Z,2.50
2023-02-08T12:01:30.383Z,2.30
2023-02-08T12:04:00.102Z,2.40
2023-02-08T12:06:45.623Z,2.50
2023-02-08T12:09:57.716Z,2.70
2023-02-08T12:12:30.526Z,2.70
2023-02-08T12:15:08.297Z,2.50
2023-02-08T12:17:44.414Z,2.50
2023-02-08T12:20:41.559Z,2.40
2023-02-08T12:23:47.721Z,2.20
2023-02-08T12:26:47.529Z,2.30
2023-02-08T12:29:47.735Z,2.40
2023-02-08T12:32:37.187Z,2.60
2023-02-08T12:36:02.800Z,2.60
2023-02-08T12:39:20.915Z,2.60
2023-02-08T12:42:07.235Z,2.80
2023-02-08T12:45:03.936Z,3.00
2023-02-08T12:48:04.067Z,2.80
2023-02-08T12:51:07.042Z,2.90
2023-02-08T12:53:51.741Z,3.00
2023-02-08T12:56:27.956Z,3.20
2023-02-08T12:59:08.151Z,3.30
2023-02-08T13:01:46.315Z,3.30
2023-02-08T13:04:35.937Z,2.90
2023-02-08T13:07:10.874Z,2.80
2023-02-08T13:09:44.691Z,3.00
2023-02-08T13:12:49.555Z,3.10
2023-02-08T13:15:31.033Z,3.10
2023-02-08T13:18:01.554Z,3.10
2023-02-08T13:20:47.006Z,3.30
2023-02-08T13:23:26.776Z,3.40
2023-02-08T13:26:01.000Z,3.60
2023-02-08T13:28:29.568Z,3.40
2023-02-08T13:31:08.207Z,3.40
2023-02-08T13:33:37.780Z,3.50
2023-02-08T13:36:05.341Z,3.30
2023-02-08T13:38:35.081Z,3.10
2023-02-08T13:41:17.847Z,3.20
2023-02-08T13:43:55.100Z,3.20
2023-02-08T13:46:24.968Z,3.40
2023-02-08T13:48:56.746Z,3.50
2023-02-08T13:51:32.532Z,3.60
2023-02-08T13:54:02.320Z,3.60
2023-02-08T13:56:45.712Z,3.40
2023-02-08T13:59:41.881Z,3.40
2023-02-08T14:02:22.335Z,3.50
2023-02-08T14:04:52.147Z,3.50
2023-02-08T14:07:43.965Z,3.50
2023-02-08T14:10:26.809Z,3.30
2023-02-08T14:13:16.893Z,3.20
2023-02-08T14:15:44.470Z,3.20
2023-02-08T14:18:25.980Z,3.30
2023-02-08T14:21:04.756Z,3.40
2023-02-08T14:23:35.091Z,3.30
2023-02-08T14:26:15.914Z,3.30
2023-02-08T14:28:48.881Z,3.20
2023-02-08T14:31:17.557Z,3.30
2023-02-08T14:33:53.826Z,3.20
2023-02-08T14:36:34.901Z,3.10
2023-02-08T14:39:26.417Z,3.00
2023-02-08T14:42:03.391Z,3.00
2023-02-08T14:44:39.686Z,2.90
2023-02-08T14:47:29.374Z,2.70
2023-02-08T14:50:22.803Z,2.70
2023-02-08T14:53:19.682Z,2.40
2023-02-08T14:56:22.129Z,2.30
2023-02-08T14:59:03.113Z,2.10
2023-02-08T15:01:45.471Z,1.90
2023-02-08T15:04:14.101Z,1.80
2023-02-08T15:07:19.916Z,1.70
2023-02-08T15:09:47.305Z,1.50
2023-02-08T15:12:26.561Z,1.40
2023-02-08T15:14:55.754Z,1.40
2023-02-08T15:17:25.628Z,1.40
2023-02-08T15:19:53.668Z,1.40
2023-02-08T15:22:26.403Z,1.40
2023-02-08T15:25:21.932Z,1.40
2023-02-08T15:27:51.489Z,1.40
2023-02-08T15:30:37.255Z,1.30
2023-02-08T15:33:21.363Z,1.20
2023-02-08T15:36:00.760Z,1.10
2023-02-08T15:38:29.966Z,1.10
2023-02-08T15:41:24.098Z,1.00
2023-02-08T15:43:51.182Z,0.90
2023-02-08T15:46:26.916Z,0.80
2023-02-08T15:48:54.780Z,0.80
2023-02-08T15:51:24.420Z,0.70
2023-02-08T15:53:54.706Z,0.70
2023-02-08T15:56:37.212Z,0.80
2023-02-08T15:59:07.409Z,0.60
2023-02-08T16:01:34.661Z,0.60
2023-02-08T16:04:06.212Z,0.60
2023-02-08T16:06:39.720Z,0.40
2023-02-08T16:09:07.134Z,0.30
2023-02-08T16:11:36.324Z,0.10
2023-02-08T16:14:05.346Z,0.10
2023-02-08T16:16:45.427Z,0.00
2023-02-08T16:19:26.418Z,-0.10
2023-02-08T16:22:13.097Z,-0.20
2023-02-08T16:24:40.635Z,-0.30
2023-02-08T16:27:29.778Z,-0.40
2023-02-08T16:29:57.672Z,-0.40
2023-02-08T16:32:31.918Z,-0.40
2023-02-08T16:35:01.739Z,-0.50
2023-02-08T16:37:31.663Z,-0.60
2023-02-08T16:40:00.258Z,-0.60
2023-02-08T16:43:25.819Z,-0.70
2023-02-08T16:48:59.629Z,-0.90
2023-02-08T16:51:31.661Z,-0.90
2023-02-08T16:54:08.632Z,-0.90
2023-02-08T16:56:36.757Z,-0.90
2023-02-08T16:59:04.024Z,-1.00
2023-02-08T17:01:32.086Z,-1.00
2023-02-08T17:03:59.829Z,-1.10
2023-02-08T17:06:31.111Z,-1.00
2023-02-08T17:09:02.905Z,-1.00
2023-02-08T17:11:30.822Z,-1.10
2023-02-08T17:13:58.833Z,-1.10
2023-02-08T17:16:28.783Z,-1.20
2023-02-08T17:18:57.218Z,-1.30
2023-02-08T17:21:24.455Z,-1.30
2023-02-08T17:23:51.781Z,-1.30
2023-02-08T17:26:36.971Z,-1.40
2023-02-08T17:29:04.208Z,-1.40
2023-02-08T17:31:31.410Z,-1.50
2023-02-08T17:34:07.260Z,-1.50
2023-02-08T17:36:36.670Z,-1.50
2023-02-08T17:39:06.414Z,-1.60
2023-02-08T17:41:33.653Z,-1.60
2023-02-08T17:44:00.687Z,-1.60
2023-02-08T17:46:30.726Z,-1.60
2023-02-08T17:49:02.002Z,-1.70
2023-02-08T17:51:29.851Z,-1.80
2023-02-08T17:53:57.152Z,-2.00
2023-02-08T17:56:28.945Z,-2.00
2023-02-08T17:58:56.374Z,-2.00
2023-02-08T18:01:26.666Z,-2.00
2023-02-08T18:03:54.571Z,-2.00
2023-02-08T18:06:31.404Z,-2.00
2023-02-08T18:09:21.905Z,-2.00
2023-02-08T18:15:14.332Z,-2.10
2023-02-08T18:17:36.265Z,-2.10
2023-02-08T18:20:04.267Z,-2.10
2023-02-08T18:22:31.762Z,-2.10
2023-02-08T18:25:07.412Z,-2.20
2023-02-08T18:27:34.446Z,-2.20
2023-02-08T18:30:01.588Z,-2.30
2023-02-08T18:32:29.242Z,-2.40
2023-02-08T18:34:57.694Z,-2.40
2023-02-08T18:37:25.691Z,-2.50
2023-02-08T18:42:38.722Z,-2.40
2023-02-08T18:45:06.096Z,-2.50
2023-02-08T18:47:34.794Z,-2.40
2023-02-08T18:50:01.821Z,-2.50
2023-02-08T18:52:31.199Z,-2.50
2023-02-08T18:54:58.557Z,-2.60
2023-02-08T18:57:25.819Z,-2.60
2023-02-08T18:59:54.152Z,-2.50
2023-02-08T19:02:22.939Z,-2.60
2023-02-08T19:04:50.299Z,-2.70
2023-02-08T19:07:17.353Z,-2.70
2023-02-08T19:09:44.512Z,-2.70
2023-02-08T19:12:15.750Z,-2.70
2023-02-08T19:14:54.567Z,-2.80
2023-02-08T19:17:22.264Z,-2.80
2023-02-08T19:19:51.952Z,-2.70
2023-02-08T19:22:19.079Z,-2.60
2023-02-08T19:24:46.017Z,-2.70
2023-02-08T19:27:13.170Z,-2.70
2023-02-08T19:29:57.871Z,-2.80
2023-02-08T19:32:36.819Z,-2.90
2023-02-08T19:41:36.283Z,-3.10
2023-02-08T19:44:16.629Z,-3.30
2023-02-08T19:46:54.539Z,-3.40
2023-02-08T19:49:26.192Z,-3.60
2023-02-08T19:51:56.489Z,-3.60
2023-02-08T19:54:24.198Z,-3.60
2023-02-08T19:56:54.798Z,-3.60
2023-02-08T19:59:34.233Z,-3.70
2023-02-08T20:02:02.752Z,-3.70
2023-02-08T20:04:29.888Z,-3.80
2023-02-08T20:06:57.114Z,-3.80
2023-02-08T20:12:51.860Z,-3.70
2023-02-08T20:15:19.108Z,-3.50
2023-02-08T20:17:46.170Z,-3.50
2023-02-08T20:20:13.337Z,-3.50
2023-02-08T20:22:42.708Z,-3.50
2023-02-08T20:25:10.290Z,-3.50
2023-02-08T20:27:38.016Z,-3.40
2023-02-08T20:30:05.853Z,-3.60
2023-02-08T20:32:33.067Z,-3.60
2023-02-08T20:35:00.230Z,-3.70
2023-02-08T20:37:27.791Z,-3.70
2023-02-08T20:39:55.168Z,-3.70
2023-02-08T20:42:22.881Z,-3.80
2023-02-08T20:44:49.958Z,-3.80
2023-02-08T20:47:19.724Z,-3.90
2023-02-08T20:49:47.153Z,-4.10
2023-02-08T20:52:14.695Z,-4.20
2023-02-08T20:54:42.346Z,-4.20
2023-02-08T20:57:11.298Z,-4.20
2023-02-08T20:59:38.362Z,-4.30
2023-02-08T21:02:05.907Z,-4.30
2023-02-08T21:04:33.637Z,-4.40
2023-02-08T21:07:00.857Z,-4.50
2023-02-08T21:09:28.167Z,-4.50
2023-02-08T21:11:55.149Z,-4.60
2023-02-08T21:14:23.594Z,-4.60
2023-02-08T21:16:56.508Z,-4.60
2023-02-08T21:19:25.040Z,-4.60
2023-02-08T21:21:56.690Z,-4.60
2023-02-08T21:24:24.432Z,-4.60
2023-02-08T21:26:52.656Z,-4.60
2023-02-08T21:29:20.924Z,-4.60
2023-02-08T21:31:51.797Z,-4.70
2023-02-08T21:34:20.237Z,-4.80
2023-02-08T21:36:47.460Z,-4.80
2023-02-08T21:39:15.469Z,-4.90
2023-02-08T21:41:42.437Z,-4.80
2023-02-08T21:44:12.663Z,-4.80
2023-02-08T21:46:43.104Z,-4.90
2023-02-08T21:49:34.068Z,-5.00
2023-02-08T21:52:31.849Z,-5.00
2023-02-08T21:55:14.722Z,-5.00
2023-02-08T21:57:49.155Z,-5.00
2023-02-08T22:00:22.616Z,-5.00
2023-02-08T22:02:56.108Z,-5.20
2023-02-08T22:06:00.932Z,-5.20
2023-02-08T22:08:31.791Z,-5.20
2023-02-08T22:13:44.292Z,-5.30
2023-02-08T22:16:14.140Z,-5.40
2023-02-08T22:18:42.877Z,-5.50
2023-02-08T22:21:11.608Z,-5.50
2023-02-08T22:23:42.297Z,-5.50
2023-02-08T22:26:11.764Z,-5.60
2023-02-08T22:28:44.057Z,-5.60
2023-02-08T22:31:16.932Z,-5.60
2023-02-08T22:33:45.661Z,-5.70
2023-02-08T22:36:15.683Z,-5.70
2023-02-08T22:38:44.385Z,-5.90
2023-02-08T22:41:16.528Z,-5.90
2023-02-08T22:43:45.442Z,-6.00
2023-02-08T22:46:13.122Z,-5.90
2023-02-08T22:48:40.683Z,-5.90
2023-02-08T22:51:09.607Z,-6.00
2023-02-08T22:53:36.663Z,-6.10
2023-02-08T22:56:06.501Z,-6.00
2023-02-08T22:58:33.440Z,-6.00
2023-02-08T23:01:00.552Z,-6.00
2023-02-08T23:03:27.990Z,-6.00
2023-02-08T23:05:55.860Z,-6.00
2023-02-08T23:08:24.617Z,-6.00
2023-02-08T23:11:02.372Z,-6.00
2023-02-08T23:13:32.004Z,-6.00
2023-02-08T23:16:01.901Z,-6.10
2023-02-08T23:18:30.524Z,-6.10
2023-02-08T23:20:59.837Z,-6.10
2023-02-08T23:23:31.036Z,-6.20
2023-02-08T23:26:05.268Z,-6.20
2023-02-08T23:28:34.674Z,-6.20
2023-02-08T23:31:07.270Z,-6.30
2023-02-08T23:33:37.257Z,-6.30
2023-02-08T23:36:11.291Z,-6.40
2023-02-08T23:38:39.880Z,-6.40
2023-02-08T23:41:11.147Z,-6.40
2023-02-08T23:43:39.755Z,-6.50
2023-02-08T23:46:18.438Z,-6.40
2023-02-08T23:48:48.328Z,-6.40
2023-02-08T23:51:22.276Z,-6.50
2023-02-08T23:53:54.602Z,-6.50
2023-02-08T23:56:36.036Z,-6.50
2023-02-08T23:59:11.171Z,-6.40
